sensor_id;sensor_type;location;lat;lon;timestamp;pressure;altitude;pressure_sealevel;temperature;humidity
48630;BME280;34426;52.180;4.462;2022-09-09T00:00:15;149767.72;;;15.22;100.00
48630;BME280;34426;52.180;4.462;2022-09-09T00:02:42;149755.22;;;15.17;100.00
48630;BME280;34426;52.180;4.462;2022-09-09T00:05:17;149737.69;;;15.10;100.00
48630;BME280;34426;52.180;4.462;2022-09-09T00:07:49;149751.44;;;15.15;100.00
48630;BME280;34426;52.180;4.462;2022-09-09T00:10:24;149755.22;;;15.17;100.00
48630;BME280;34426;52.180;4.462;2022-09-09T00:12:57;149736.47;;;15.09;100.00
48630;BME280;34426;52.180;4.462;2022-09-09T00:15:28;149746.44;;;15.13;100.00
48630;BME280;34426;52.180;4.462;2022-09-09T00:18:07;149723.97;;;15.04;100.00
48630;BME280;34426;52.180;4.462;2022-09-09T00:20:41;149742.69;;;15.12;100.00
48630;BME280;34426;52.180;4.462;2022-09-09T00:23:14;149726.44;;;15.05;100.00
48630;BME280;34426;52.180;4.462;2022-09-09T00:25:56;149713.94;;;15.00;100.00
48630;BME280;34426;52.180;4.462;2022-09-09T00:28:27;149726.44;;;15.05;100.00
48630;BME280;34426;52.180;4.462;2022-09-09T00:30:56;149735.19;;;15.09;100.00
48630;BME280;34426;52.180;4.462;2022-09-09T00:33:27;149716.44;;;15.01;100.00
48630;BME280;34426;52.180;4.462;2022-09-09T00:35:59;149712.69;;;14.99;100.00
48630;BME280;34426;52.180;4.462;2022-09-09T00:38:31;149707.69;;;14.97;100.00
48630;BME280;34426;52.180;4.462;2022-09-09T00:41:07;149703.94;;;14.96;100.00
48630;BME280;34426;52.180;4.462;2022-09-09T00:43:38;149703.94;;;14.96;100.00
48630;BME280;34426;52.180;4.462;2022-09-09T00:46:33;149688.91;;;14.90;100.00
48630;BME280;34426;52.180;4.462;2022-09-09T00:49:15;149681.38;;;14.87;100.00
48630;BME280;34426;52.180;4.462;2022-09-09T00:51:56;149672.63;;;14.83;100.00
48630;BME280;34426;52.180;4.462;2022-09-09T00:54:32;149668.94;;;14.81;100.00
48630;BME280;34426;52.180;4.462;2022-09-09T00:57:16;149661.41;;;14.78;100.00
48630;BME280;34426;52.180;4.462;2022-09-09T00:59:48;149656.44;;;14.76;100.00
48630;BME280;34426;52.180;4.462;2022-09-09T01:02:26;149653.91;;;14.75;100.00
48630;BME280;34426;52.180;4.462;2022-09-09T01:04:54;149648.91;;;14.73;100.00
48630;BME280;34426;52.180;4.462;2022-09-09T01:07:25;149613.88;;;14.59;100.00
48630;BME280;34426;52.180;4.462;2022-09-09T01:09:55;149613.88;;;14.59;100.00
48630;BME280;34426;52.180;4.462;2022-09-09T01:12:34;149626.38;;;14.64;100.00
48630;BME280;34426;52.180;4.462;2022-09-09T01:15:11;149630.13;;;14.65;100.00
48630;BME280;34426;52.180;4.462;2022-09-09T01:17:53;149613.88;;;14.59;100.00
48630;BME280;34426;52.180;4.462;2022-09-09T01:20:29;149618.91;;;14.61;100.00
48630;BME280;34426;52.180;4.462;2022-09-09T01:23:15;149595.09;;;14.51;100.00
48630;BME280;34426;52.180;4.462;2022-09-09T01:26:09;149593.84;;;14.51;100.00
48630;BME280;34426;52.180;4.462;2022-09-09T01:28:39;149571.31;;;14.41;100.00
48630;BME280;34426;52.180;4.462;2022-09-09T01:31:07;149560.09;;;14.37;100.00
48630;BME280;34426;52.180;4.462;2022-09-09T01:33:36;149561.31;;;14.37;100.00
48630;BME280;34426;52.180;4.462;2022-09-09T01:36:06;149582.59;;;14.46;100.00
48630;BME280;34426;52.180;4.462;2022-09-09T01:38:35;149578.81;;;14.44;100.00
48630;BME280;34426;52.180;4.462;2022-09-09T01:41:05;149572.59;;;14.42;100.00
48630;BME280;34426;52.180;4.462;2022-09-09T01:43:32;149575.06;;;14.43;100.00
48630;BME280;34426;52.180;4.462;2022-09-09T01:46:01;149557.56;;;14.36;100.00
48630;BME280;34426;52.180;4.462;2022-09-09T01:48:29;149543.84;;;14.30;100.00
48630;BME280;34426;52.180;4.462;2022-09-09T01:50:56;149535.09;;;14.26;100.00
48630;BME280;34426;52.180;4.462;2022-09-09T01:53:24;149521.31;;;14.21;100.00
48630;BME280;34426;52.180;4.462;2022-09-09T01:55:58;149522.59;;;14.21;100.00
48630;BME280;34426;52.180;4.462;2022-09-09T01:58:37;149508.78;;;14.16;100.00
48630;BME280;34426;52.180;4.462;2022-09-09T02:01:17;149493.81;;;14.09;100.00
48630;BME280;34426;52.180;4.462;2022-09-09T02:03:53;149468.81;;;13.99;100.00
48630;BME280;34426;52.180;4.462;2022-09-09T02:06:28;149452.56;;;13.93;100.00
48630;BME280;34426;52.180;4.462;2022-09-09T02:08:58;149453.81;;;13.93;100.00
48630;BME280;34426;52.180;4.462;2022-09-09T02:11:28;149446.28;;;13.90;100.00
48630;BME280;34426;52.180;4.462;2022-09-09T02:14:03;149453.81;;;13.93;100.00
48630;BME280;34426;52.180;4.462;2022-09-09T02:16:37;149450.03;;;13.92;100.00
48630;BME280;34426;52.180;4.462;2022-09-09T02:19:09;149440.06;;;13.87;100.00
48630;BME280;34426;52.180;4.462;2022-09-09T02:21:38;149432.56;;;13.84;100.00
48630;BME280;34426;52.180;4.462;2022-09-09T02:24:09;149455.09;;;13.94;100.00
48630;BME280;34426;52.180;4.462;2022-09-09T02:26:40;149447.56;;;13.90;100.00
48630;BME280;34426;52.180;4.462;2022-09-09T02:29:14;149441.31;;;13.88;100.00
48630;BME280;34426;52.180;4.462;2022-09-09T02:31:44;149440.06;;;13.87;100.00
48630;BME280;34426;52.180;4.462;2022-09-09T02:34:14;149435.09;;;13.85;100.00
48630;BME280;34426;52.180;4.462;2022-09-09T02:36:46;149428.81;;;13.83;100.00
48630;BME280;34426;52.180;4.462;2022-09-09T02:39:15;149418.81;;;13.79;100.00
48630;BME280;34426;52.180;4.462;2022-09-09T02:41:42;149415.06;;;13.77;100.00
48630;BME280;34426;52.180;4.462;2022-09-09T02:44:14;149395.06;;;13.69;100.00
48630;BME280;34426;52.180;4.462;2022-09-09T02:46:57;149391.31;;;13.67;100.00
48630;BME280;34426;52.180;4.462;2022-09-09T02:49:35;149388.84;;;13.66;100.00
48630;BME280;34426;52.180;4.462;2022-09-09T02:52:06;149387.56;;;13.66;100.00
48630;BME280;34426;52.180;4.462;2022-09-09T02:54:35;149371.34;;;13.59;100.00
48630;BME280;34426;52.180;4.462;2022-09-09T02:57:08;149371.34;;;13.59;100.00
48630;BME280;34426;52.180;4.462;2022-09-09T02:59:39;149361.31;;;13.55;100.00
48630;BME280;34426;52.180;4.462;2022-09-09T03:02:07;149358.84;;;13.54;100.00
48630;BME280;34426;52.180;4.462;2022-09-09T03:04:34;149352.59;;;13.51;100.00
48630;BME280;34426;52.180;4.462;2022-09-09T03:07:01;149348.81;;;13.50;100.00
48630;BME280;34426;52.180;4.462;2022-09-09T03:09:29;149356.34;;;13.53;100.00
48630;BME280;34426;52.180;4.462;2022-09-09T03:11:57;149350.13;;;13.50;100.00
48630;BME280;34426;52.180;4.462;2022-09-09T03:14:24;149360.09;;;13.55;100.00
48630;BME280;34426;52.180;4.462;2022-09-09T03:16:53;149348.81;;;13.50;100.00
48630;BME280;34426;52.180;4.462;2022-09-09T03:19:22;149340.09;;;13.46;100.00
48630;BME280;34426;52.180;4.462;2022-09-09T03:21:49;149337.63;;;13.45;100.00
48630;BME280;34426;52.180;4.462;2022-09-09T03:24:16;149346.34;;;13.49;100.00
48630;BME280;34426;52.180;4.462;2022-09-09T03:26:43;149336.34;;;13.45;100.00
48630;BME280;34426;52.180;4.462;2022-09-09T03:29:11;149328.81;;;13.42;100.00
48630;BME280;34426;52.180;4.462;2022-09-09T03:31:39;149313.84;;;13.36;100.00
48630;BME280;34426;52.180;4.462;2022-09-09T03:34:08;149328.81;;;13.42;100.00
48630;BME280;34426;52.180;4.462;2022-09-09T03:36:35;149310.09;;;13.34;100.00
48630;BME280;34426;52.180;4.462;2022-09-09T03:39:03;149297.56;;;13.29;100.00
48630;BME280;34426;52.180;4.462;2022-09-09T03:41:31;149316.38;;;13.37;100.00
48630;BME280;34426;52.180;4.462;2022-09-09T03:43:58;149306.34;;;13.32;100.00
48630;BME280;34426;52.180;4.462;2022-09-09T03:46:26;149302.56;;;13.31;100.00
48630;BME280;34426;52.180;4.462;2022-09-09T03:48:54;149292.56;;;13.27;100.00
48630;BME280;34426;52.180;4.462;2022-09-09T03:51:23;149287.59;;;13.25;100.00
48630;BME280;34426;52.180;4.462;2022-09-09T03:53:51;149271.34;;;13.18;100.00
48630;BME280;34426;52.180;4.462;2022-09-09T03:56:18;149285.06;;;13.24;100.00
48630;BME280;34426;52.180;4.462;2022-09-09T03:58:46;149286.31;;;13.24;100.00
48630;BME280;34426;52.180;4.462;2022-09-09T04:01:14;149290.06;;;13.26;100.00
48630;BME280;34426;52.180;4.462;2022-09-09T04:03:42;149296.31;;;13.28;100.00
48630;BME280;34426;52.180;4.462;2022-09-09T04:06:11;149285.06;;;13.24;100.00
48630;BME280;34426;52.180;4.462;2022-09-09T04:08:40;149278.84;;;13.21;100.00
48630;BME280;34426;52.180;4.462;2022-09-09T04:11:08;149278.84;;;13.21;100.00
48630;BME280;34426;52.180;4.462;2022-09-09T04:13:37;149281.31;;;13.22;100.00
48630;BME280;34426;52.180;4.462;2022-09-09T04:16:05;149268.81;;;13.17;100.00
48630;BME280;34426;52.180;4.462;2022-09-09T04:18:33;149262.59;;;13.14;100.00
48630;BME280;34426;52.180;4.462;2022-09-09T04:21:01;149261.31;;;13.14;100.00
48630;BME280;34426;52.180;4.462;2022-09-09T04:23:28;149261.31;;;13.14;100.00
48630;BME280;34426;52.180;4.462;2022-09-09T04:25:59;149276.31;;;13.20;100.00
48630;BME280;34426;52.180;4.462;2022-09-09T04:28:28;149262.59;;;13.14;100.00
48630;BME280;34426;52.180;4.462;2022-09-09T04:30:56;149253.84;;;13.11;100.00
48630;BME280;34426;52.180;4.462;2022-09-09T04:33:24;149255.09;;;13.11;100.00
48630;BME280;34426;52.180;4.462;2022-09-09T04:35:52;149255.09;;;13.11;100.00
48630;BME280;34426;52.180;4.462;2022-09-09T04:38:20;149246.34;;;13.08;100.00
48630;BME280;34426;52.180;4.462;2022-09-09T04:40:48;149235.09;;;13.03;100.00
48630;BME280;34426;52.180;4.462;2022-09-09T04:43:18;149238.84;;;13.05;100.00
48630;BME280;34426;52.180;4.462;2022-09-09T04:45:47;149251.34;;;13.10;100.00
48630;BME280;34426;52.180;4.462;2022-09-09T04:48:15;149246.34;;;13.08;100.00
48630;BME280;34426;52.180;4.462;2022-09-09T04:50:42;149231.34;;;13.02;100.00
48630;BME280;34426;52.180;4.462;2022-09-09T04:53:09;149230.09;;;13.01;100.00
48630;BME280;34426;52.180;4.462;2022-09-09T04:55:37;149228.88;;;13.01;100.00
48630;BME280;34426;52.180;4.462;2022-09-09T04:58:06;149251.34;;;13.10;100.00
48630;BME280;34426;52.180;4.462;2022-09-09T05:00:35;149256.31;;;13.12;100.00
48630;BME280;34426;52.180;4.462;2022-09-09T05:03:04;149261.31;;;13.14;100.00
48630;BME280;34426;52.180;4.462;2022-09-09T05:05:31;149262.59;;;13.14;100.00
48630;BME280;34426;52.180;4.462;2022-09-09T05:08:02;149253.84;;;13.11;100.00
48630;BME280;34426;52.180;4.462;2022-09-09T05:10:29;149256.31;;;13.12;100.00
48630;BME280;34426;52.180;4.462;2022-09-09T05:12:57;149260.09;;;13.13;100.00
48630;BME280;34426;52.180;4.462;2022-09-09T05:15:24;149270.06;;;13.18;100.00
48630;BME280;34426;52.180;4.462;2022-09-09T05:17:57;149273.81;;;13.19;100.00
48630;BME280;34426;52.180;4.462;2022-09-09T05:20:25;149260.09;;;13.13;100.00
48630;BME280;34426;52.180;4.462;2022-09-09T05:22:53;149267.59;;;13.17;100.00
48630;BME280;34426;52.180;4.462;2022-09-09T05:25:21;149256.31;;;13.12;100.00
48630;BME280;34426;52.180;4.462;2022-09-09T05:27:48;149266.34;;;13.16;100.00
48630;BME280;34426;52.180;4.462;2022-09-09T05:30:16;149271.34;;;13.18;100.00
48630;BME280;34426;52.180;4.462;2022-09-09T05:32:42;149283.84;;;13.23;100.00
48630;BME280;34426;52.180;4.462;2022-09-09T05:35:11;149315.09;;;13.36;100.00
48630;BME280;34426;52.180;4.462;2022-09-09T05:37:39;149345.06;;;13.48;100.00
48630;BME280;34426;52.180;4.462;2022-09-09T05:40:07;149380.09;;;13.63;100.00
48630;BME280;34426;52.180;4.462;2022-09-09T05:42:34;149401.34;;;13.71;100.00
48630;BME280;34426;52.180;4.462;2022-09-09T05:45:01;149423.81;;;13.81;100.00
48630;BME280;34426;52.180;4.462;2022-09-09T05:47:29;149437.56;;;13.86;100.00
48630;BME280;34426;52.180;4.462;2022-09-09T05:49:56;149448.81;;;13.91;100.00
48630;BME280;34426;52.180;4.462;2022-09-09T05:52:25;149471.28;;;14.00;100.00
48630;BME280;34426;52.180;4.462;2022-09-09T05:54:52;149477.56;;;14.03;100.00
48630;BME280;34426;52.180;4.462;2022-09-09T05:57:21;149491.31;;;14.08;100.00
48630;BME280;34426;52.180;4.462;2022-09-09T05:59:48;149510.09;;;14.16;100.00
48630;BME280;34426;52.180;4.462;2022-09-09T06:02:15;149513.84;;;14.18;100.00
48630;BME280;34426;52.180;4.462;2022-09-09T06:04:42;149523.81;;;14.22;100.00
48630;BME280;34426;52.180;4.462;2022-09-09T06:07:10;149545.06;;;14.31;100.00
48630;BME280;34426;52.180;4.462;2022-09-09T06:09:39;149550.06;;;14.33;100.00
48630;BME280;34426;52.180;4.462;2022-09-09T06:12:07;149588.81;;;14.49;100.00
48630;BME280;34426;52.180;4.462;2022-09-09T06:14:34;149598.84;;;14.53;100.00
48630;BME280;34426;52.180;4.462;2022-09-09T06:17:02;149606.34;;;14.56;100.00
48630;BME280;34426;52.180;4.462;2022-09-09T06:19:30;149625.13;;;14.63;100.00
48630;BME280;34426;52.180;4.462;2022-09-09T06:21:57;149628.88;;;14.65;100.00
48630;BME280;34426;52.180;4.462;2022-09-09T06:24:25;149641.41;;;14.70;100.00
48630;BME280;34426;52.180;4.462;2022-09-09T06:26:54;149671.41;;;14.82;100.00
48630;BME280;34426;52.180;4.462;2022-09-09T06:29:22;149683.91;;;14.88;100.00
48630;BME280;34426;52.180;4.462;2022-09-09T06:31:49;149708.94;;;14.98;100.00
48630;BME280;34426;52.180;4.462;2022-09-09T06:34:16;149726.44;;;15.05;100.00
48630;BME280;34426;52.180;4.462;2022-09-09T06:36:44;149742.69;;;15.12;100.00
48630;BME280;34426;52.180;4.462;2022-09-09T06:39:11;149761.47;;;15.19;100.00
48630;BME280;34426;52.180;4.462;2022-09-09T06:41:38;149770.25;;;15.23;100.00
48630;BME280;34426;52.180;4.462;2022-09-09T06:44:08;149796.50;;;15.34;100.00
48630;BME280;34426;52.180;4.462;2022-09-09T06:46:35;149820.28;;;15.44;100.00
48630;BME280;34426;52.180;4.462;2022-09-09T06:49:02;149839.03;;;15.51;100.00
48630;BME280;34426;52.180;4.462;2022-09-09T06:51:31;149841.56;;;15.52;100.00
48630;BME280;34426;52.180;4.462;2022-09-09T06:53:59;149836.50;;;15.50;100.00
48630;BME280;34426;52.180;4.462;2022-09-09T06:56:28;149827.75;;;15.47;100.00
48630;BME280;34426;52.180;4.462;2022-09-09T06:58:56;149840.25;;;15.52;100.00
48630;BME280;34426;52.180;4.462;2022-09-09T07:01:27;149830.28;;;15.48;100.00
48630;BME280;34426;52.180;4.462;2022-09-09T07:03:55;149850.31;;;15.56;100.00
48630;BME280;34426;52.180;4.462;2022-09-09T07:06:24;149841.56;;;15.52;100.00
48630;BME280;34426;52.180;4.462;2022-09-09T07:08:53;149861.53;;;15.61;100.00
48630;BME280;34426;52.180;4.462;2022-09-09T07:11:22;149874.03;;;15.66;100.00
48630;BME280;34426;52.180;4.462;2022-09-09T07:13:49;149875.31;;;15.66;100.00
48630;BME280;34426;52.180;4.462;2022-09-09T07:16:18;149897.88;;;15.75;100.00
48630;BME280;34426;52.180;4.462;2022-09-09T07:18:47;149909.16;;;15.80;100.00
48630;BME280;34426;52.180;4.462;2022-09-09T07:21:15;149901.63;;;15.77;100.00
48630;BME280;34426;52.180;4.462;2022-09-09T07:23:43;149895.31;;;15.74;100.00
48630;BME280;34426;52.180;4.462;2022-09-09T07:26:11;149890.31;;;15.72;100.00
48630;BME280;34426;52.180;4.462;2022-09-09T07:28:40;149901.63;;;15.77;100.00
48630;BME280;34426;52.180;4.462;2022-09-09T07:31:12;149895.31;;;15.74;100.00
48630;BME280;34426;52.180;4.462;2022-09-09T07:33:40;149905.41;;;15.79;100.00
48630;BME280;34426;52.180;4.462;2022-09-09T07:36:12;149895.31;;;15.74;100.00
48630;BME280;34426;52.180;4.462;2022-09-09T07:38:40;149891.59;;;15.73;100.00
48630;BME280;34426;52.180;4.462;2022-09-09T07:41:07;149901.63;;;15.77;100.00
48630;BME280;34426;52.180;4.462;2022-09-09T07:43:33;149904.16;;;15.78;100.00
48630;BME280;34426;52.180;4.462;2022-09-09T07:46:00;149899.13;;;15.76;100.00
48630;BME280;34426;52.180;4.462;2022-09-09T07:48:26;149894.06;;;15.74;100.00
48630;BME280;34426;52.180;4.462;2022-09-09T07:50:51;149896.66;;;15.75;100.00
48630;BME280;34426;52.180;4.462;2022-09-09T07:53:18;149906.63;;;15.79;100.00
48630;BME280;34426;52.180;4.462;2022-09-09T07:55:43;149896.66;;;15.75;100.00
48630;BME280;34426;52.180;4.462;2022-09-09T07:58:11;149891.59;;;15.73;100.00
48630;BME280;34426;52.180;4.462;2022-09-09T08:00:39;149902.88;;;15.77;100.00
48630;BME280;34426;52.180;4.462;2022-09-09T08:03:06;149886.56;;;15.71;100.00
48630;BME280;34426;52.180;4.462;2022-09-09T08:05:33;149901.63;;;15.77;100.00
48630;BME280;34426;52.180;4.462;2022-09-09T08:08:01;149907.88;;;15.80;100.00
48630;BME280;34426;52.180;4.462;2022-09-09T08:10:30;149916.63;;;15.83;100.00
48630;BME280;34426;52.180;4.462;2022-09-09T08:12:58;149911.63;;;15.81;100.00
48630;BME280;34426;52.180;4.462;2022-09-09T08:15:26;149920.41;;;15.85;100.00
48630;BME280;34426;52.180;4.462;2022-09-09T08:17:53;149942.94;;;15.94;100.00
48630;BME280;34426;52.180;4.462;2022-09-09T08:20:21;149955.47;;;15.99;100.00
48630;BME280;34426;52.180;4.462;2022-09-09T08:22:48;149996.78;;;16.16;100.00
48630;BME280;34426;52.180;4.462;2022-09-09T08:25:16;150030.56;;;16.30;100.00
48630;BME280;34426;52.180;4.462;2022-09-09T08:27:45;150079.34;;;16.50;100.00
48630;BME280;34426;52.180;4.462;2022-09-09T08:30:13;150055.59;;;16.40;100.00
48630;BME280;34426;52.180;4.462;2022-09-09T08:32:40;150083.13;;;16.51;100.00
48630;BME280;34426;52.180;4.462;2022-09-09T08:35:08;150106.94;;;16.61;100.00
48630;BME280;34426;52.180;4.462;2022-09-09T08:37:36;150114.44;;;16.64;100.00
48630;BME280;34426;52.180;4.462;2022-09-09T08:40:05;150098.16;;;16.58;100.00
48630;BME280;34426;52.180;4.462;2022-09-09T08:42:38;150090.66;;;16.55;100.00
48630;BME280;34426;52.180;4.462;2022-09-09T08:45:22;150076.88;;;16.49;100.00
48630;BME280;34426;52.180;4.462;2022-09-09T08:48:01;150056.84;;;16.41;100.00
48630;BME280;34426;52.180;4.462;2022-09-09T08:50:34;150048.09;;;16.37;100.00
48630;BME280;34426;52.180;4.462;2022-09-09T08:53:04;150049.31;;;16.38;100.00
48630;BME280;34426;52.180;4.462;2022-09-09T08:55:37;150024.28;;;16.27;100.00
48630;BME280;34426;52.180;4.462;2022-09-09T08:58:12;150063.06;;;16.43;100.00
48630;BME280;34426;52.180;4.462;2022-09-09T09:00:48;150089.41;;;16.54;100.00
48630;BME280;34426;52.180;4.462;2022-09-09T09:03:27;150079.34;;;16.50;100.00
48630;BME280;34426;52.180;4.462;2022-09-09T09:06:04;150090.66;;;16.55;100.00
48630;BME280;34426;52.180;4.462;2022-09-09T09:08:38;150085.63;;;16.52;100.00
48630;BME280;34426;52.180;4.462;2022-09-09T09:11:08;150081.88;;;16.51;100.00
48630;BME280;34426;52.180;4.462;2022-09-09T09:13:41;150066.84;;;16.45;100.00
48630;BME280;34426;52.180;4.462;2022-09-09T09:16:19;150060.59;;;16.42;100.00
48630;BME280;34426;52.180;4.462;2022-09-09T09:18:49;150064.38;;;16.44;100.00
48630;BME280;34426;52.180;4.462;2022-09-09T09:21:19;150088.13;;;16.53;100.00
48630;BME280;34426;52.180;4.462;2022-09-09T09:23:53;150086.88;;;16.53;100.00
48630;BME280;34426;52.180;4.462;2022-09-09T09:26:24;150066.84;;;16.45;100.00
48630;BME280;34426;52.180;4.462;2022-09-09T09:28:54;150071.84;;;16.47;100.00
48630;BME280;34426;52.180;4.462;2022-09-09T09:31:24;150046.78;;;16.37;100.00
48630;BME280;34426;52.180;4.462;2022-09-09T09:33:53;150049.31;;;16.38;100.00
48630;BME280;34426;52.180;4.462;2022-09-09T09:36:20;150030.56;;;16.30;100.00
48630;BME280;34426;52.180;4.462;2022-09-09T09:38:55;150021.75;;;16.26;100.00
48630;BME280;34426;52.180;4.462;2022-09-09T09:41:36;150023.03;;;16.27;100.00
48630;BME280;34426;52.180;4.462;2022-09-09T09:44:05;150066.84;;;16.45;100.00
48630;BME280;34426;52.180;4.462;2022-09-09T09:46:35;150138.22;;;16.74;100.00
48630;BME280;34426;52.180;4.462;2022-09-09T09:49:03;150194.63;;;16.97;100.00
48630;BME280;34426;52.180;4.462;2022-09-09T09:51:32;150237.19;;;17.15;100.00
48630;BME280;34426;52.180;4.462;2022-09-09T09:54:13;150278.53;;;17.32;100.00
48630;BME280;34426;52.180;4.462;2022-09-09T09:56:43;150282.25;;;17.33;100.00
48630;BME280;34426;52.180;4.462;2022-09-09T09:59:23;150248.44;;;17.19;100.00
48630;BME280;34426;52.180;4.462;2022-09-09T10:02:14;150255.97;;;17.22;100.00
48630;BME280;34426;52.180;4.462;2022-09-09T10:04:42;150264.72;;;17.26;100.00
48630;BME280;34426;52.180;4.462;2022-09-09T10:07:16;150255.97;;;17.22;100.00
48630;BME280;34426;52.180;4.462;2022-09-09T10:09:44;150238.44;;;17.15;100.00
48630;BME280;34426;52.180;4.462;2022-09-09T10:12:23;150273.50;;;17.30;100.00
48630;BME280;34426;52.180;4.462;2022-09-09T10:15:01;150273.50;;;17.30;100.00
48630;BME280;34426;52.180;4.462;2022-09-09T10:17:33;150304.84;;;17.42;100.00
48630;BME280;34426;52.180;4.462;2022-09-09T10:20:16;150291.06;;;17.37;100.00
48630;BME280;34426;52.180;4.462;2022-09-09T10:22:51;150271.00;;;17.29;100.00
48630;BME280;34426;52.180;4.462;2022-09-09T10:25:28;150234.69;;;17.14;100.00
48630;BME280;34426;52.180;4.462;2022-09-09T10:30:58;150173.34;;;16.88;100.00
48630;BME280;34426;52.180;4.462;2022-09-09T10:33:41;150139.44;;;16.75;100.00
48630;BME280;34426;52.180;4.462;2022-09-09T10:36:16;150157.00;;;16.82;100.00
48630;BME280;34426;52.180;4.462;2022-09-09T10:38:44;150163.28;;;16.84;100.00
48630;BME280;34426;52.180;4.462;2022-09-09T10:41:19;150125.69;;;16.69;100.00
48630;BME280;34426;52.180;4.462;2022-09-09T10:44:02;150146.97;;;16.78;100.00
48630;BME280;34426;52.180;4.462;2022-09-09T10:46:41;150108.16;;;16.62;100.00
48630;BME280;34426;52.180;4.462;2022-09-09T10:49:23;150091.88;;;16.55;100.00
48630;BME280;34426;52.180;4.462;2022-09-09T10:51:59;150103.16;;;16.60;100.00
48630;BME280;34426;52.180;4.462;2022-09-09T10:54:42;150119.44;;;16.66;100.00
48630;BME280;34426;52.180;4.462;2022-09-09T10:57:15;150141.97;;;16.76;100.00
48630;BME280;34426;52.180;4.462;2022-09-09T10:59:48;150164.53;;;16.85;100.00
48630;BME280;34426;52.180;4.462;2022-09-09T11:02:30;150182.09;;;16.92;100.00
48630;BME280;34426;52.180;4.462;2022-09-09T11:05:03;150200.88;;;17.00;100.00
48630;BME280;34426;52.180;4.462;2022-09-09T11:07:37;150273.50;;;17.30;100.00
48630;BME280;34426;52.180;4.462;2022-09-09T11:10:17;150391.25;;;17.78;100.00
48630;BME280;34426;52.180;4.462;2022-09-09T11:12:47;150470.25;;;18.10;100.00
48630;BME280;34426;52.180;4.462;2022-09-09T11:15:18;150461.47;;;18.07;100.00
48630;BME280;34426;52.180;4.462;2022-09-09T11:17:49;150465.25;;;18.08;100.00
48630;BME280;34426;52.180;4.462;2022-09-09T11:20:19;150481.53;;;18.15;100.00
48630;BME280;34426;52.180;4.462;2022-09-09T11:22:50;150484.03;;;18.16;100.00
48630;BME280;34426;52.180;4.462;2022-09-09T11:25:20;150428.88;;;17.93;100.00
48630;BME280;34426;52.180;4.462;2022-09-09T11:28:16;150467.78;;;18.09;100.00
48630;BME280;34426;52.180;4.462;2022-09-09T11:30:58;150460.25;;;18.06;100.00
48630;BME280;34426;52.180;4.462;2022-09-09T11:33:51;150492.78;;;18.19;100.00
48630;BME280;34426;52.180;4.462;2022-09-09T11:39:52;150670.84;;;18.92;100.00
48630;BME280;34426;52.180;4.462;2022-09-09T11:42:26;150687.16;;;18.99;100.00
48630;BME280;34426;52.180;4.462;2022-09-09T11:44:53;150658.31;;;18.87;100.00
48630;BME280;34426;52.180;4.462;2022-09-09T11:47:23;150625.66;;;18.74;100.00
48630;BME280;34426;52.180;4.462;2022-09-09T11:49:51;150653.31;;;18.85;100.00
48630;BME280;34426;52.180;4.462;2022-09-09T11:52:23;150593.06;;;18.61;100.00
48630;BME280;34426;52.180;4.462;2022-09-09T11:54:55;150520.38;;;18.31;100.00
48630;BME280;34426;52.180;4.462;2022-09-09T11:57:29;150435.19;;;17.96;100.00
48630;BME280;34426;52.180;4.462;2022-09-09T11:59:58;150392.53;;;17.78;100.00
48630;BME280;34426;52.180;4.462;2022-09-09T12:02:27;150297.31;;;17.39;100.00
48630;BME280;34426;52.180;4.462;2022-09-09T12:05:02;150208.38;;;17.03;100.00
48630;BME280;34426;52.180;4.462;2022-09-09T12:07:35;150178.34;;;16.91;100.00
48630;BME280;34426;52.180;4.462;2022-09-09T12:10:22;150199.63;;;16.99;100.00
48630;BME280;34426;52.180;4.462;2022-09-09T12:12:50;150234.69;;;17.14;100.00
48630;BME280;34426;52.180;4.462;2022-09-09T12:15:24;150289.78;;;17.36;100.00
48630;BME280;34426;52.180;4.462;2022-09-09T12:17:52;150313.59;;;17.46;100.00
48630;BME280;34426;52.180;4.462;2022-09-09T12:20:21;150333.66;;;17.54;100.00
48630;BME280;34426;52.180;4.462;2022-09-09T12:23:15;150415.13;;;17.88;100.00
48630;BME280;34426;52.180;4.462;2022-09-09T12:26:02;150413.88;;;17.87;100.00
48630;BME280;34426;52.180;4.462;2022-09-09T12:28:49;150433.88;;;17.95;100.00
48630;BME280;34426;52.180;4.462;2022-09-09T12:31:22;150470.25;;;18.10;100.00
48630;BME280;34426;52.180;4.462;2022-09-09T12:33:54;150458.94;;;18.06;100.00
48630;BME280;34426;52.180;4.462;2022-09-09T12:36:23;150509.09;;;18.26;100.00
48630;BME280;34426;52.180;4.462;2022-09-09T12:38:52;150470.25;;;18.10;100.00
48630;BME280;34426;52.180;4.462;2022-09-09T12:41:22;150505.31;;;18.25;100.00
48630;BME280;34426;52.180;4.462;2022-09-09T12:43:50;150489.06;;;18.18;100.00
48630;BME280;34426;52.180;4.462;2022-09-09T12:46:23;150476.53;;;18.13;100.00
48630;BME280;34426;52.180;4.462;2022-09-09T12:48:54;150457.72;;;18.05;100.00
48630;BME280;34426;52.180;4.462;2022-09-09T12:51:26;150440.19;;;17.98;100.00
48630;BME280;34426;52.180;4.462;2022-09-09T12:53:56;150438.94;;;17.97;100.00
48630;BME280;34426;52.180;4.462;2022-09-09T12:56:27;150455.22;;;18.04;100.00
48630;BME280;34426;52.180;4.462;2022-09-09T12:58:56;150460.25;;;18.06;100.00
48630;BME280;34426;52.180;4.462;2022-09-09T13:01:26;150433.88;;;17.95;100.00
48630;BME280;34426;52.180;4.462;2022-09-09T13:03:53;150476.53;;;18.13;100.00
48630;BME280;34426;52.180;4.462;2022-09-09T13:06:23;150464.00;;;18.08;100.00